Time;durP1;ratioP1;P1;durP2;ratioP2;P2;SDS_P1;SDS_P2;PMS_P1;PMS_P2;Temp;Humidity;BMP_temperature;BMP_pressure;BME280_temperature;BME280_humidity;BME280_pressure;Samples;Min_cycle;Max_cycle;Signal;HPM_P1;HPM_P2
2024/03/29 00:00:42;;;;;;;4.23;0.67;;;9.50;99.90;;;;;;5054196;28;20036;-49
2024/03/29 00:03:09;;;;;;;3.27;0.70;;;9.50;99.90;;;;;;5072096;28;20025;-49
2024/03/29 00:05:35;;;;;;;2.13;0.50;;;9.50;99.90;;;;;;5071792;28;20032;-51
2024/03/29 00:08:01;;;;;;;5.30;0.57;;;9.50;99.90;;;;;;5071989;28;20102;-52
2024/03/29 00:10:26;;;;;;;1.70;0.60;;;9.50;99.90;;;;;;5071792;28;20024;-51
2024/03/29 00:12:52;;;;;;;4.37;0.97;;;9.50;99.90;;;;;;5071975;28;20135;-52
2024/03/29 00:15:17;;;;;;;5.60;0.70;;;9.40;99.90;;;;;;5071783;28;20419;-50
2024/03/29 00:17:43;;;;;;;6.27;1.00;;;9.40;99.90;;;;;;5071828;28;20039;-52
2024/03/29 00:20:09;;;;;;;2.70;0.60;;;9.50;99.90;;;;;;5053731;28;20094;-48
2024/03/29 00:22:35;;;;;;;1.93;0.40;;;9.50;99.90;;;;;;5071806;28;20469;-49
2024/03/29 00:25:00;;;;;;;3.60;0.77;;;9.50;99.90;;;;;;5071692;28;20047;-49
2024/03/29 00:27:28;;;;;;;4.00;0.70;;;9.50;99.90;;;;;;5071911;28;20032;-50
2024/03/29 00:29:54;;;;;;;1.07;0.50;;;9.50;99.90;;;;;;5071593;28;20043;-50
2024/03/29 00:32:20;;;;;;;4.70;0.63;;;9.50;99.90;;;;;;5071824;28;20033;-50
2024/03/29 00:34:45;;;;;;;3.00;0.70;;;9.60;99.90;;;;;;5071585;28;20040;-54
2024/03/29 00:37:12;;;;;;;1.60;0.67;;;9.50;99.90;;;;;;5071565;28;20035;-50
2024/03/29 00:39:37;;;;;;;3.40;0.60;;;9.50;99.90;;;;;;5071516;28;20060;-53
2024/03/29 00:42:06;;;;;;;2.03;0.60;;;9.50;99.90;;;;;;5071723;28;20052;-53
2024/03/29 00:44:32;;;;;;;6.25;0.70;;;9.50;99.90;;;;;;5071661;28;20032;-50
2024/03/29 00:46:58;;;;;;;3.10;0.70;;;9.50;99.90;;;;;;5071428;28;20024;-52
2024/03/29 00:49:23;;;;;;;2.13;0.63;;;9.40;99.90;;;;;;5071638;28;20048;-49
2024/03/29 00:51:49;;;;;;;3.53;0.70;;;9.40;99.90;;;;;;5071452;28;20041;-49
2024/03/29 00:54:14;;;;;;;3.17;0.73;;;9.40;99.90;;;;;;5071632;28;20028;-49
2024/03/29 00:56:40;;;;;;;2.43;0.57;;;9.40;99.90;;;;;;5074361;28;20024;-49
2024/03/29 00:59:06;;;;;;;1.93;0.53;;;9.40;99.90;;;;;;5075352;28;20033;-51
2024/03/29 01:01:32;;;;;;;3.63;0.77;;;9.40;99.90;;;;;;5075443;28;20059;-51
2024/03/29 01:03:58;;;;;;;1.77;0.50;;;9.40;99.90;;;;;;5075428;28;20446;-55
2024/03/29 01:06:23;;;;;;;0.90;0.40;;;9.40;99.90;;;;;;5075220;28;20107;-51
2024/03/29 01:08:49;;;;;;;2.53;0.50;;;9.40;99.90;;;;;;5075320;28;20389;-50
2024/03/29 01:11:15;;;;;;;2.37;0.90;;;9.40;99.90;;;;;;5074149;28;20064;-52
2024/03/29 01:13:40;;;;;;;1.83;0.60;;;9.40;99.90;;;;;;5075112;28;20054;-55
2024/03/29 01:16:06;;;;;;;3.17;0.50;;;9.40;99.90;;;;;;5074982;28;20054;-50
2024/03/29 01:18:33;;;;;;;1.27;0.57;;;9.30;99.90;;;;;;5075176;28;20041;-49
2024/03/29 01:20:59;;;;;;;11.57;3.47;;;9.40;99.90;;;;;;5074856;28;20032;-54
2024/03/29 01:23:24;;;;;;;14.33;3.90;;;9.40;99.90;;;;;;5075102;28;20525;-49
2024/03/29 01:25:50;;;;;;;7.10;2.03;;;9.40;99.90;;;;;;5074779;28;20036;-49
2024/03/29 01:28:15;;;;;;;2.30;0.60;;;9.50;99.90;;;;;;5074883;28;20025;-48
2024/03/29 01:30:41;;;;;;;1.80;0.53;;;9.50;99.90;;;;;;5056931;28;20033;-49
2024/03/29 01:33:06;;;;;;;2.47;0.67;;;9.50;99.90;;;;;;5074874;28;20028;-51
2024/03/29 01:35:32;;;;;;;3.47;0.60;;;9.60;99.90;;;;;;5074554;28;20044;-49
2024/03/29 01:37:58;;;;;;;1.50;0.70;;;9.60;99.90;;;;;;5074833;28;20115;-49
2024/03/29 01:40:23;;;;;;;3.47;0.50;;;9.60;99.90;;;;;;5074680;28;20041;-49
2024/03/29 01:42:53;;;;;;;1.57;0.50;;;9.60;99.90;;;;;;5074567;28;20074;-49
2024/03/29 01:45:19;;;;;;;4.07;0.70;;;9.60;99.90;;;;;;5074433;28;20058;-49
2024/03/29 01:47:46;;;;;;;5.03;0.77;;;9.60;99.90;;;;;;5074565;28;20032;-49
2024/03/29 01:50:11;;;;;;;3.23;0.57;;;9.60;99.90;;;;;;5074425;28;20123;-54
2024/03/29 01:52:38;;;;;;;2.73;0.57;;;9.70;99.90;;;;;;5074500;28;20108;-49
2024/03/29 01:55:04;;;;;;;2.87;0.60;;;9.70;99.90;;;;;;5074409;28;20024;-53
2024/03/29 01:57:29;;;;;;;3.30;0.60;;;9.70;99.90;;;;;;5074323;28;20040;-50
2024/03/29 01:59:56;;;;;;;1.53;0.50;;;9.70;99.90;;;;;;5074327;28;20045;-49
2024/03/29 02:02:23;;;;;;;3.20;1.10;;;9.70;99.90;;;;;;5074329;28;20037;-51
2024/03/29 02:04:49;;;;;;;2.50;0.50;;;9.70;99.90;;;;;;5056301;28;20033;-51
2024/03/29 02:07:15;;;;;;;3.17;0.40;;;9.70;99.90;;;;;;5073363;28;20038;-50
2024/03/29 02:09:40;;;;;;;3.73;1.07;;;9.70;99.90;;;;;;5074257;28;20036;-50
2024/03/29 02:12:07;;;;;;;1.90;0.70;;;9.80;99.90;;;;;;5056157;28;20485;-52
2024/03/29 02:14:32;;;;;;;2.17;0.40;;;9.80;99.90;;;;;;5056146;28;20378;-54
2024/03/29 02:16:58;;;;;;;3.20;0.50;;;9.80;99.90;;;;;;5073866;28;20043;-51
2024/03/29 02:19:24;;;;;;;1.53;0.60;;;9.80;99.90;;;;;;5073893;28;20116;-51
2024/03/29 02:21:53;;;;;;;1.10;0.40;;;9.80;99.90;;;;;;5073994;28;20458;-49
2024/03/29 02:24:19;;;;;;;1.60;0.53;;;9.80;99.90;;;;;;5073990;28;20032;-49
2024/03/29 02:26:45;;;;;;;1.70;0.50;;;9.80;99.90;;;;;;5073658;28;20130;-49
2024/03/29 02:29:11;;;;;;;1.20;0.57;;;9.80;99.90;;;;;;5073904;28;20020;-52
2024/03/29 02:31:37;;;;;;;2.40;0.57;;;9.80;99.90;;;;;;5073839;28;20034;-50
2024/03/29 02:34:03;;;;;;;2.77;0.60;;;9.90;99.90;;;;;;5072553;28;20107;-53
2024/03/29 02:36:28;;;;;;;4.33;0.50;;;9.90;99.90;;;;;;5073585;28;20055;-51
2024/03/29 02:38:54;;;;;;;3.47;0.60;;;9.90;99.90;;;;;;5073658;28;20029;-52
2024/03/29 02:41:19;;;;;;;1.93;0.50;;;9.90;99.90;;;;;;5074281;28;20032;-54
2024/03/29 02:43:45;;;;;;;1.83;0.43;;;9.90;99.90;;;;;;5074026;28;20029;-48
2024/03/29 02:46:10;;;;;;;2.10;0.70;;;10.00;99.90;;;;;;5073600;28;20035;-48
2024/03/29 02:48:36;;;;;;;1.97;0.63;;;9.90;99.90;;;;;;5074064;28;20465;-48
2024/03/29 02:51:02;;;;;;;2.73;0.40;;;9.90;99.90;;;;;;5073906;28;20039;-50
2024/03/29 02:53:27;;;;;;;3.30;0.63;;;10.00;99.90;;;;;;5074788;28;20124;-52
2024/03/29 02:55:53;;;;;;;1.83;0.50;;;10.10;99.90;;;;;;5074690;28;20489;-52
2024/03/29 02:58:18;;;;;;;1.60;0.80;;;10.20;99.90;;;;;;5074362;28;20063;-49
2024/03/29 03:00:44;;;;;;;2.60;0.77;;;10.20;99.90;;;;;;5074426;28;20032;-48
2024/03/29 03:03:10;;;;;;;1.60;0.50;;;10.20;99.90;;;;;;5073253;28;20059;-55
2024/03/29 03:05:35;;;;;;;1.37;0.60;;;10.20;99.90;;;;;;5074362;28;20077;-52
2024/03/29 03:10:56;;;;;;;1.57;0.40;;;10.10;99.90;;;;;;5073061;28;20025;-51
2024/03/29 03:13:22;;;;;;;4.63;0.70;;;10.10;99.90;;;;;;5073007;28;20421;-50
2024/03/29 03:15:48;;;;;;;2.70;0.60;;;10.00;99.90;;;;;;5072715;28;20048;-50
2024/03/29 03:18:13;;;;;;;2.43;0.60;;;10.00;99.90;;;;;;5072692;28;20029;-49
2024/03/29 03:20:39;;;;;;;1.17;0.50;;;10.00;99.90;;;;;;5072696;28;20112;-49
2024/03/29 03:23:05;;;;;;;4.43;0.53;;;10.00;99.90;;;;;;5072849;28;20029;-51
2024/03/29 03:25:31;;;;;;;4.30;0.60;;;10.00;99.90;;;;;;5072509;28;20024;-53
2024/03/29 03:27:56;;;;;;;4.73;0.80;;;10.10;99.90;;;;;;5072711;28;20036;-52
2024/03/29 03:30:22;;;;;;;4.47;0.63;;;10.10;99.90;;;;;;5072543;28;20024;-49
2024/03/29 03:32:48;;;;;;;9.60;2.97;;;10.00;99.90;;;;;;5072811;28;20505;-51
2024/03/29 03:35:14;;;;;;;3.27;1.07;;;9.90;99.90;;;;;;5072386;28;20475;-52
2024/03/29 03:37:39;;;;;;;4.13;0.77;;;9.90;99.90;;;;;;5072426;28;20062;-53
2024/03/29 03:40:06;;;;;;;2.03;0.47;;;9.90;99.90;;;;;;5072332;28;20070;-51
2024/03/29 03:42:32;;;;;;;2.80;0.50;;;9.90;99.90;;;;;;5072457;28;20429;-50
2024/03/29 03:44:58;;;;;;;1.37;0.40;;;10.00;99.90;;;;;;5072216;28;20469;-48
2024/03/29 03:47:23;;;;;;;2.63;0.40;;;10.00;99.90;;;;;;5072248;28;20081;-49
2024/03/29 03:49:49;;;;;;;1.90;0.53;;;10.00;99.90;;;;;;5072142;28;20029;-49
2024/03/29 03:52:15;;;;;;;2.87;0.70;;;10.00;99.90;;;;;;5072243;28;20503;-49
2024/03/29 03:54:41;;;;;;;3.83;0.60;;;10.00;99.90;;;;;;5072029;28;20033;-51
2024/03/29 03:57:06;;;;;;;3.63;0.60;;;10.00;99.90;;;;;;5072021;28;20036;-50
2024/03/29 03:59:32;;;;;;;2.20;0.50;;;10.00;99.90;;;;;;5072100;28;20358;-54
2024/03/29 04:01:57;;;;;;;2.70;0.60;;;10.00;99.90;;;;;;5072147;28;20151;-54
2024/03/29 04:04:23;;;;;;;1.43;0.60;;;10.00;99.90;;;;;;5072144;28;20564;-50
2024/03/29 04:06:49;;;;;;;1.97;0.50;;;9.90;99.90;;;;;;5071943;28;20033;-52
2024/03/29 04:09:18;;;;;;;2.07;0.73;;;9.90;99.90;;;;;;5072086;28;20499;-54
2024/03/29 04:11:44;;;;;;;5.03;0.68;;;9.80;99.90;;;;;;5072100;28;20025;-50
2024/03/29 04:14:09;;;;;;;3.07;0.80;;;9.80;99.90;;;;;;5071980;28;20433;-49
2024/03/29 04:16:35;;;;;;;1.60;0.50;;;9.80;99.90;;;;;;5071755;28;20460;-50
2024/03/29 04:19:01;;;;;;;3.97;0.80;;;9.80;99.90;;;;;;5071865;28;20033;-50
2024/03/29 04:21:26;;;;;;;2.53;0.53;;;9.70;99.90;;;;;;5071719;28;20032;-49
2024/03/29 04:23:52;;;;;;;2.87;0.77;;;9.70;99.90;;;;;;5071827;28;20035;-53
2024/03/29 04:26:18;;;;;;;3.47;0.47;;;9.70;99.90;;;;;;5071736;28;20016;-52
2024/03/29 04:28:44;;;;;;;3.83;0.53;;;9.60;99.90;;;;;;5071824;28;20055;-52
2024/03/29 04:31:10;;;;;;;4.53;0.80;;;9.50;99.90;;;;;;5053279;28;20473;-49
2024/03/29 04:33:36;;;;;;;1.83;0.50;;;9.40;99.90;;;;;;5071837;28;20133;-48
2024/03/29 04:36:03;;;;;;;2.00;0.50;;;9.30;99.90;;;;;;5071947;28;20203;-52
2024/03/29 04:38:30;;;;;;;2.70;0.70;;;9.30;99.90;;;;;;5071733;28;20089;-49
2024/03/29 04:40:57;;;;;;;1.90;0.70;;;9.20;99.90;;;;;;5071811;28;20511;-49
2024/03/29 04:43:25;;;;;;;4.90;0.63;;;9.10;99.90;;;;;;5071694;28;20405;-49
2024/03/29 04:45:50;;;;;;;2.50;0.77;;;9.00;99.90;;;;;;5071341;28;20029;-49
2024/03/29 04:48:16;;;;;;;3.60;0.80;;;8.90;99.90;;;;;;5071575;28;20031;-50
2024/03/29 04:50:42;;;;;;;3.20;0.67;;;8.80;99.90;;;;;;5071471;28;20027;-50
2024/03/29 04:53:08;;;;;;;3.50;0.90;;;8.70;99.90;;;;;;5071557;28;20115;-49
2024/03/29 04:55:35;;;;;;;2.37;0.80;;;8.60;99.90;;;;;;5071516;28;20303;-49
2024/03/29 04:58:01;;;;;;;3.10;0.90;;;8.60;99.90;;;;;;5071437;28;20445;-49
2024/03/29 05:00:27;;;;;;;2.57;0.70;;;8.60;99.90;;;;;;5071312;28;20071;-49
2024/03/29 05:02:52;;;;;;;1.77;0.60;;;8.50;99.90;;;;;;5071417;28;20111;-51
2024/03/29 05:05:18;;;;;;;3.07;0.60;;;8.40;99.90;;;;;;5071297;28;20097;-49
2024/03/29 05:07:43;;;;;;;6.23;1.73;;;8.30;99.90;;;;;;5071434;28;20118;-50
2024/03/29 05:10:09;;;;;;;4.33;0.90;;;8.20;99.90;;;;;;5071316;28;20075;-52
2024/03/29 05:12:36;;;;;;;3.40;1.17;;;8.10;99.90;;;;;;5071458;28;20493;-49
2024/03/29 05:15:01;;;;;;;3.73;1.10;;;8.10;99.90;;;;;;5070998;28;20039;-49
2024/03/29 05:17:27;;;;;;;3.77;0.83;;;8.00;99.90;;;;;;5071305;28;20029;-49
2024/03/29 05:19:56;;;;;;;2.67;0.70;;;7.90;99.90;;;;;;5071050;28;20041;-48
2024/03/29 05:22:22;;;;;;;5.50;0.82;;;7.80;99.90;;;;;;5071278;28;20029;-49
2024/03/29 05:24:47;;;;;;;6.03;1.00;;;7.60;99.90;;;;;;5071159;28;20034;-49
2024/03/29 05:27:13;;;;;;;3.87;0.90;;;7.50;99.90;;;;;;5071150;28;20392;-49
2024/03/29 05:29:39;;;;;;;4.83;0.93;;;7.50;99.90;;;;;;5071081;28;20032;-50
2024/03/29 05:32:06;;;;;;;5.13;1.07;;;7.40;99.90;;;;;;5071219;28;20458;-51
2024/03/29 05:34:31;;;;;;;2.43;0.60;;;7.40;99.90;;;;;;5071191;28;20032;-48
2024/03/29 05:36:57;;;;;;;3.07;0.90;;;7.30;99.90;;;;;;5071127;28;20098;-48
2024/03/29 05:39:23;;;;;;;2.83;1.10;;;7.30;99.90;;;;;;5071345;28;20025;-49
2024/03/29 05:41:48;;;;;;;5.77;0.80;;;7.30;99.90;;;;;;5071034;28;20393;-50
2024/03/29 05:44:14;;;;;;;3.97;0.83;;;7.30;99.90;;;;;;5074601;28;20043;-48
2024/03/29 05:46:40;;;;;;;4.37;1.07;;;7.30;99.90;;;;;;5074329;28;20108;-49
2024/03/29 05:49:06;;;;;;;5.83;0.90;;;7.30;99.90;;;;;;5074538;28;20086;-48
2024/03/29 05:51:33;;;;;;;5.57;1.00;;;7.30;99.90;;;;;;5074513;28;20028;-50
2024/03/29 05:53:59;;;;;;;6.23;1.27;;;7.30;99.90;;;;;;5074470;28;20073;-50
2024/03/29 05:56:25;;;;;;;5.30;0.90;;;7.20;99.90;;;;;;5074140;28;20461;-49
2024/03/29 05:58:51;;;;;;;5.23;0.80;;;7.20;99.90;;;;;;5074445;28;20028;-50
2024/03/29 06:01:16;;;;;;;4.00;1.13;;;7.20;99.90;;;;;;5074149;28;20032;-49
2024/03/29 06:03:42;;;;;;;6.10;1.10;;;7.20;99.90;;;;;;5074292;28;20482;-50
2024/03/29 06:06:11;;;;;;;4.93;1.00;;;7.20;99.90;;;;;;5074214;28;20024;-54
2024/03/29 06:08:37;;;;;;;3.28;0.80;;;7.30;99.90;;;;;;5074209;28;20033;-50
2024/03/29 06:11:03;;;;;;;4.23;0.87;;;7.30;99.90;;;;;;5074073;28;20029;-50
2024/03/29 06:18:57;;;;;;;8.60;1.30;;;7.30;99.90;;;;;;5074031;28;20025;-52
2024/03/29 06:21:23;;;;;;;3.47;1.30;;;7.40;99.90;;;;;;5073936;28;20031;-49
2024/03/29 06:23:48;;;;;;;2.53;0.90;;;7.40;99.90;;;;;;5073941;28;20120;-50
2024/03/29 06:26:14;;;;;;;2.83;1.00;;;7.50;99.90;;;;;;5073617;28;20032;-51
2024/03/29 06:28:40;;;;;;;2.97;1.00;;;7.50;99.90;;;;;;5073847;28;20034;-53
2024/03/29 06:31:05;;;;;;;2.73;0.80;;;7.60;99.90;;;;;;5073781;28;20063;-53
2024/03/29 06:33:31;;;;;;;5.57;1.00;;;7.60;99.90;;;;;;5073777;28;20115;-51
2024/03/29 06:35:56;;;;;;;2.30;0.90;;;7.70;99.90;;;;;;5055508;28;20058;-53
2024/03/29 06:38:22;;;;;;;5.57;0.80;;;7.80;99.90;;;;;;5073766;28;20029;-51
2024/03/29 06:40:48;;;;;;;2.93;0.90;;;8.00;99.90;;;;;;5055628;28;20462;-52
2024/03/29 06:43:14;;;;;;;6.63;0.90;;;8.00;99.90;;;;;;5073588;28;20025;-53
2024/03/29 06:45:42;;;;;;;3.43;0.87;;;8.00;99.90;;;;;;5073363;28;20104;-52
2024/03/29 06:48:08;;;;;;;2.70;0.80;;;8.10;99.90;;;;;;5073613;28;20477;-54
2024/03/29 06:50:34;;;;;;;3.40;0.80;;;8.10;99.90;;;;;;5073532;28;20485;-51
2024/03/29 06:53:00;;;;;;;6.17;1.20;;;8.10;99.90;;;;;;5073635;28;20025;-50
2024/03/29 06:55:26;;;;;;;3.27;0.87;;;8.10;99.90;;;;;;5073514;28;20515;-53
2024/03/29 06:57:51;;;;;;;5.07;1.57;;;8.20;99.90;;;;;;5073611;28;20105;-52
2024/03/29 07:00:17;;;;;;;4.43;0.90;;;8.10;99.90;;;;;;5073971;28;20039;-50
2024/03/29 07:02:43;;;;;;;3.40;0.80;;;8.20;99.90;;;;;;5073490;28;20443;-54
2024/03/29 07:05:11;;;;;;;4.80;1.07;;;8.20;99.90;;;;;;5073116;28;20029;-53
2024/03/29 07:07:37;;;;;;;8.47;3.30;;;8.30;99.90;;;;;;5073209;28;20031;-54
2024/03/29 07:10:03;;;;;;;4.40;1.23;;;8.40;99.90;;;;;;5072845;28;20158;-50
2024/03/29 07:12:29;;;;;;;3.17;0.90;;;8.50;99.90;;;;;;5072980;28;20060;-52
2024/03/29 07:14:54;;;;;;;3.70;0.90;;;8.40;99.90;;;;;;5072884;28;20090;-50
2024/03/29 07:17:20;;;;;;;2.80;0.90;;;8.50;99.90;;;;;;5072909;28;20032;-52
2024/03/29 07:19:45;;;;;;;2.80;0.93;;;8.50;99.90;;;;;;5072859;28;20540;-51
2024/03/29 07:22:11;;;;;;;2.57;1.10;;;8.50;99.90;;;;;;5054938;28;20029;-51
2024/03/29 07:24:36;;;;;;;2.63;0.83;;;8.50;99.90;;;;;;5072789;28;20366;-50
2024/03/29 07:27:02;;;;;;;5.33;1.03;;;8.50;99.90;;;;;;5054505;28;20017;-50
2024/03/29 07:29:28;;;;;;;4.10;0.90;;;8.60;99.90;;;;;;5072671;28;20454;-49
2024/03/29 07:31:53;;;;;;;5.50;1.17;;;8.60;99.90;;;;;;5072628;28;20028;-51
2024/03/29 07:34:20;;;;;;;5.07;0.87;;;8.80;99.90;;;;;;5072607;28;20501;-49
2024/03/29 07:36:46;;;;;;;3.27;1.20;;;9.00;99.90;;;;;;5072423;28;20028;-50
2024/03/29 07:39:11;;;;;;;5.37;0.90;;;9.00;99.90;;;;;;5072247;28;20086;-51
2024/03/29 07:41:37;;;;;;;2.80;0.83;;;9.00;99.90;;;;;;5072384;28;20033;-49
2024/03/29 07:44:03;;;;;;;2.97;0.90;;;9.10;99.90;;;;;;5072633;28;20107;-50
2024/03/29 07:46:34;;;;;;;2.20;0.80;;;9.20;99.90;;;;;;5072134;28;20045;-49
2024/03/29 07:49:00;;;;;;;2.90;1.00;;;9.20;99.90;;;;;;5072281;28;20576;-51
2024/03/29 07:51:25;;;;;;;4.20;0.90;;;9.30;99.90;;;;;;5072222;28;20028;-50
2024/03/29 07:53:51;;;;;;;2.00;0.70;;;9.30;99.90;;;;;;5072519;28;20431;-50
2024/03/29 07:56:17;;;;;;;4.63;1.00;;;9.20;99.90;;;;;;5071878;28;20040;-49
2024/03/29 07:58:43;;;;;;;2.10;0.90;;;9.30;99.90;;;;;;5072146;28;20033;-50
2024/03/29 08:01:08;;;;;;;3.90;1.20;;;9.30;99.90;;;;;;5070884;28;20079;-50
2024/03/29 08:03:34;;;;;;;4.63;1.23;;;9.30;99.90;;;;;;5072200;28;20049;-49
2024/03/29 08:06:06;;;;;;;3.97;1.20;;;9.40;99.90;;;;;;5071147;28;20024;-54
2024/03/29 08:08:33;;;;;;;6.43;1.97;;;9.40;99.90;;;;;;5072039;28;20496;-51
2024/03/29 08:10:59;;;;;;;5.33;1.30;;;9.40;99.90;;;;;;5072157;28;20055;-54
2024/03/29 08:13:26;;;;;;;3.70;1.17;;;9.40;99.90;;;;;;5072021;28;20043;-52
2024/03/29 08:16:01;;;;;;;4.43;1.20;;;9.40;99.90;;;;;;5071789;28;20025;-54
2024/03/29 08:18:28;;;;;;;3.47;1.20;;;9.50;99.90;;;;;;5071937;28;20119;-52
2024/03/29 08:20:58;;;;;;;4.27;1.20;;;9.60;99.90;;;;;;5071697;28;20039;-50
2024/03/29 08:23:24;;;;;;;4.33;1.03;;;9.60;99.90;;;;;;5071867;28;20031;-50
2024/03/29 08:25:51;;;;;;;4.03;1.20;;;9.70;99.90;;;;;;5071775;28;20397;-48
2024/03/29 08:28:20;;;;;;;3.40;1.10;;;9.60;99.90;;;;;;5071775;28;20532;-50
2024/03/29 08:30:45;;;;;;;5.43;1.08;;;9.60;99.90;;;;;;5071745;28;20032;-49
2024/03/29 08:33:12;;;;;;;4.30;1.27;;;9.60;99.90;;;;;;5071804;28;20508;-49
2024/03/29 08:35:39;;;;;;;4.43;1.30;;;9.60;99.90;;;;;;5071483;28;20409;-50
2024/03/29 08:38:05;;;;;;;3.73;1.10;;;9.60;99.90;;;;;;5071611;28;20119;-51
2024/03/29 08:40:32;;;;;;;4.77;1.30;;;9.50;99.90;;;;;;5071557;28;20085;-49
2024/03/29 08:42:57;;;;;;;4.07;1.53;;;9.40;99.90;;;;;;5071758;28;20032;-51
2024/03/29 08:45:23;;;;;;;4.80;1.40;;;9.40;99.90;;;;;;5071525;28;20035;-51
2024/03/29 08:47:49;;;;;;;3.93;1.37;;;9.30;99.90;;;;;;5071564;28;20120;-50
2024/03/29 08:50:15;;;;;;;5.10;1.20;;;9.30;99.90;;;;;;5071488;28;20036;-50
2024/03/29 08:52:40;;;;;;;3.23;1.17;;;9.20;99.90;;;;;;5071628;28;20051;-52
2024/03/29 08:55:07;;;;;;;5.03;1.53;;;9.30;99.90;;;;;;5071501;28;20116;-52
2024/03/29 08:57:33;;;;;;;4.20;1.57;;;9.30;99.90;;;;;;5053555;28;20481;-50
2024/03/29 08:59:58;;;;;;;3.50;1.10;;;9.30;99.90;;;;;;5071479;28;20074;-50
2024/03/29 09:02:24;;;;;;;2.93;1.53;;;9.40;99.90;;;;;;5071319;28;20393;-49
2024/03/29 09:04:50;;;;;;;3.60;1.50;;;9.40;99.90;;;;;;5071133;28;20035;-50
2024/03/29 09:07:15;;;;;;;4.10;1.50;;;9.50;99.90;;;;;;5071193;28;20029;-53
2024/03/29 09:09:41;;;;;;;5.63;1.97;;;9.60;99.90;;;;;;5071167;28;20242;-50
2024/03/29 09:12:10;;;;;;;5.37;1.50;;;9.60;99.90;;;;;;5071379;28;20048;-52
2024/03/29 09:14:36;;;;;;;4.68;1.70;;;9.60;99.90;;;;;;5071282;28;20037;-50
2024/03/29 09:17:02;;;;;;;5.63;1.80;;;9.60;99.90;;;;;;5072982;28;20114;-51
2024/03/29 09:19:30;;;;;;;5.53;1.93;;;9.60;99.90;;;;;;5075175;28;20028;-50
2024/03/29 09:21:56;;;;;;;6.33;1.57;;;9.80;99.90;;;;;;5075131;28;20029;-50
2024/03/29 09:24:22;;;;;;;5.10;1.60;;;9.80;99.90;;;;;;5075178;28;20499;-50
2024/03/29 09:26:51;;;;;;;3.77;1.53;;;9.70;99.90;;;;;;5074932;28;20082;-55
2024/03/29 09:29:17;;;;;;;3.45;1.70;;;9.80;99.90;;;;;;5075155;28;20037;-50
2024/03/29 09:31:43;;;;;;;3.83;1.47;;;9.90;99.90;;;;;;5075021;28;20036;-50
2024/03/29 09:34:09;;;;;;;8.40;3.93;;;9.90;99.90;;;;;;5075181;28;20492;-49
2024/03/29 09:36:34;;;;;;;14.90;7.00;;;10.00;99.90;;;;;;5074797;28;20028;-49
2024/03/29 09:39:00;;;;;;;5.93;2.23;;;10.00;99.90;;;;;;5075067;28;20054;-49
2024/03/29 09:41:28;;;;;;;4.70;1.57;;;10.10;99.90;;;;;;5075172;28;20123;-51
2024/03/29 09:43:57;;;;;;;4.90;2.20;;;10.20;99.90;;;;;;5075089;28;20048;-51
2024/03/29 09:46:23;;;;;;;;;;;10.20;99.90;;;;;;5075672;28;20378;-49
2024/03/29 09:48:50;;;;;;;4.77;1.83;;;10.20;99.90;;;;;;5075611;28;20300;-49
2024/03/29 09:51:16;;;;;;;2.67;1.77;;;10.20;99.90;;;;;;5075644;28;20505;-50
2024/03/29 09:53:43;;;;;;;4.60;1.63;;;10.40;99.90;;;;;;5058595;28;20032;-52
2024/03/29 09:56:09;;;;;;;5.53;1.60;;;10.60;99.90;;;;;;5076241;28;20036;-51
2024/03/29 09:58:36;;;;;;;6.73;2.00;;;10.80;99.90;;;;;;5075878;28;20547;-51
2024/03/29 10:01:04;;;;;;;4.90;1.80;;;11.00;99.90;;;;;;5076335;28;20045;-51
2024/03/29 10:03:32;;;;;;;4.90;1.63;;;11.30;99.90;;;;;;5075935;28;20958;-50
2024/03/29 10:06:00;;;;;;;3.27;1.67;;;11.30;99.90;;;;;;5074567;28;20044;-52
2024/03/29 10:08:30;;;;;;;4.55;1.40;;;11.30;99.90;;;;;;5074261;28;20032;-50
2024/03/29 10:10:57;;;;;;;4.20;1.70;;;11.40;99.90;;;;;;5074232;28;20055;-50
2024/03/29 10:13:23;;;;;;;4.73;2.10;;;11.50;99.90;;;;;;5074166;28;20032;-53
2024/03/29 10:15:56;;;;;;;3.50;1.40;;;11.50;99.90;;;;;;5074011;28;20028;-53
2024/03/29 10:18:30;;;;;;;4.00;1.50;;;11.50;99.90;;;;;;5074075;28;20476;-52
2024/03/29 10:21:06;;;;;;;5.30;1.67;;;11.50;99.90;;;;;;5074064;28;20086;-50
2024/03/29 10:23:35;;;;;;;5.13;1.27;;;11.70;99.90;;;;;;5074073;28;20485;-50
2024/03/29 10:26:04;;;;;;;2.80;1.40;;;11.70;99.90;;;;;;5073720;28;20029;-50
2024/03/29 10:28:34;;;;;;;4.13;1.50;;;11.70;99.90;;;;;;5073091;28;20025;-53
2024/03/29 10:31:04;;;;;;;7.00;1.73;;;11.70;99.90;;;;;;5074026;28;20401;-54
2024/03/29 10:33:33;;;;;;;4.40;1.40;;;11.60;99.90;;;;;;5074022;28;20025;-52
2024/03/29 10:36:00;;;;;;;2.83;1.20;;;11.70;99.90;;;;;;5073899;28;20123;-55
2024/03/29 10:38:27;;;;;;;3.23;1.23;;;11.70;99.90;;;;;;5073480;28;20029;-51
2024/03/29 10:40:53;;;;;;;3.63;1.23;;;11.70;99.90;;;;;;5055641;28;20043;-51
2024/03/29 10:43:20;;;;;;;3.67;1.30;;;11.70;99.90;;;;;;5073558;28;20631;-52
2024/03/29 10:45:47;;;;;;;4.47;1.63;;;11.70;99.90;;;;;;5073291;28;20033;-50
2024/03/29 10:48:15;;;;;;;3.58;1.50;;;11.80;99.90;;;;;;5073476;28;20024;-50
2024/03/29 10:50:42;;;;;;;3.60;1.27;;;11.80;99.90;;;;;;5073364;28;20489;-52
2024/03/29 10:53:09;;;;;;;2.53;1.20;;;11.80;99.90;;;;;;5073718;28;20396;-51
2024/03/29 10:55:36;;;;;;;2.63;1.17;;;12.00;99.90;;;;;;5055145;28;20074;-50
2024/03/29 10:58:03;;;;;;;4.00;1.55;;;12.40;99.90;;;;;;5073414;28;20068;-50
2024/03/29 11:00:37;;;;;;;1.90;1.00;;;12.70;99.90;;;;;;5055295;28;20445;-55
2024/03/29 11:03:29;;;;;;;2.70;1.30;;;13.10;99.90;;;;;;5073360;28;20028;-50
2024/03/29 11:06:02;;;;;;;3.58;1.00;;;13.40;99.90;;;;;;5054788;28;20032;-51
2024/03/29 11:08:37;;;;;;;2.30;1.10;;;14.10;99.90;;;;;;5073100;28;20427;-49
2024/03/29 11:11:05;;;;;;;2.78;1.08;;;14.90;99.90;;;;;;5072991;28;20401;-50
2024/03/29 11:13:54;;;;;;;2.47;0.90;;;16.00;99.90;;;;;;5072905;28;20086;-51
2024/03/29 11:16:20;;;;;;;2.25;0.80;;;16.80;99.90;;;;;;5072823;28;20097;-51
2024/03/29 11:18:51;;;;;;;2.15;1.10;;;17.20;99.90;;;;;;5073057;28;20036;-52
2024/03/29 11:21:20;;;;;;;3.85;0.93;;;17.20;99.90;;;;;;5072554;28;20033;-52
2024/03/29 11:23:53;;;;;;;1.48;0.90;;;17.30;99.90;;;;;;5072671;28;20040;-50
2024/03/29 11:26:19;;;;;;;2.72;0.90;;;17.10;99.90;;;;;;5054538;28;20029;-50
2024/03/29 11:28:49;;;;;;;1.02;0.68;;;16.50;99.90;;;;;;5072529;28;20021;-49
2024/03/29 11:31:15;;;;;;;1.48;0.90;;;16.10;99.90;;;;;;5072583;28;20044;-52
2024/03/29 11:33:44;;;;;;;2.92;1.05;;;15.70;99.90;;;;;;5072563;28;20032;-49
2024/03/29 11:36:11;;;;;;;;;;;15.30;99.90;;;;;;5073291;28;20047;-50
2024/03/29 11:38:37;;;;;;;2.33;0.65;;;15.10;99.90;;;;;;5072394;28;19972;-52
2024/03/29 11:41:06;;;;;;;2.60;0.60;;;15.00;99.90;;;;;;5072291;28;20024;-53
2024/03/29 11:43:36;;;;;;;1.73;0.80;;;14.70;99.90;;;;;;5072352;28;20020;-48
2024/03/29 11:46:05;;;;;;;1.73;0.68;;;14.60;99.90;;;;;;5054240;28;20043;-49
2024/03/29 11:48:33;;;;;;;2.83;1.08;;;14.60;99.90;;;;;;5072247;28;20021;-51
2024/03/29 11:51:00;;;;;;;1.73;0.70;;;14.40;99.90;;;;;;5072473;28;20440;-50
2024/03/29 11:53:30;;;;;;;1.65;0.80;;;14.30;99.90;;;;;;5072163;28;20032;-53
2024/03/29 11:56:00;;;;;;;4.75;1.15;;;14.30;99.90;;;;;;5071980;28;20028;-50
2024/03/29 11:58:30;;;;;;;2.88;0.90;;;14.30;99.90;;;;;;5072194;28;20028;-51
2024/03/29 12:00:57;;;;;;;3.15;0.98;;;14.30;99.90;;;;;;5072053;28;20036;-52
2024/03/29 12:03:27;;;;;;;1.75;0.90;;;14.40;99.90;;;;;;5072193;28;20481;-50
2024/03/29 12:05:55;;;;;;;1.70;0.60;;;14.40;99.90;;;;;;5053818;28;20033;-51
2024/03/29 12:08:26;;;;;;;1.90;0.60;;;14.40;99.90;;;;;;5072019;28;20032;-50
2024/03/29 12:10:52;;;;;;;1.38;0.65;;;14.50;99.90;;;;;;5072018;28;20072;-54
2024/03/29 12:13:18;;;;;;;3.97;0.77;;;14.60;99.90;;;;;;5072014;28;20121;-51
2024/03/29 12:15:44;;;;;;;1.58;0.60;;;14.70;99.90;;;;;;5071768;28;20123;-54
2024/03/29 12:18:11;;;;;;;1.92;0.60;;;14.60;99.90;;;;;;5071880;28;20041;-51
2024/03/29 12:20:38;;;;;;;1.48;0.60;;;14.70;99.90;;;;;;5071727;28;20127;-52
2024/03/29 12:23:06;;;;;;;2.83;0.85;;;14.70;99.90;;;;;;5071927;28;20117;-49
2024/03/29 12:25:33;;;;;;;3.37;0.60;;;14.80;99.90;;;;;;5071771;28;20028;-51
2024/03/29 12:28:00;;;;;;;2.05;0.70;;;14.80;99.90;;;;;;5071976;28;20408;-52
2024/03/29 12:30:26;;;;;;;1.95;0.90;;;15.00;99.90;;;;;;5071735;28;20078;-54
2024/03/29 12:33:11;;;;;;;1.85;0.73;;;15.00;99.90;;;;;;5071740;28;20110;-51
2024/03/29 12:35:37;;;;;;;2.78;0.63;;;15.00;99.90;;;;;;5071433;28;20032;-52
2024/03/29 12:38:04;;;;;;;2.97;0.80;;;15.10;99.90;;;;;;5071704;28;20066;-53
2024/03/29 12:40:32;;;;;;;1.77;0.90;;;15.20;99.90;;;;;;5071572;28;20567;-54
2024/03/29 12:42:58;;;;;;;2.13;0.70;;;15.30;99.90;;;;;;5071784;28;20470;-50
2024/03/29 12:45:25;;;;;;;3.38;0.77;;;15.50;99.90;;;;;;5071607;28;20112;-48
2024/03/29 12:47:51;;;;;;;2.90;0.95;;;15.70;99.90;;;;;;5071758;28;20036;-51
2024/03/29 12:50:26;;;;;;;3.00;0.70;;;15.80;99.90;;;;;;5071778;28;20033;-49
2024/03/29 12:52:57;;;;;;;2.35;0.70;;;15.90;99.90;;;;;;5075141;28;20047;-50
2024/03/29 12:55:24;;;;;;;0.85;0.38;;;15.80;99.90;;;;;;5075428;28;20496;-49
2024/03/29 12:57:53;;;;;;;4.47;0.90;;;16.00;99.90;;;;;;5075601;28;20048;-50